Time;durP1;ratioP1;P1;durP2;ratioP2;P2;SDS_P1;SDS_P2;PMS_P1;PMS_P2;Temp;Humidity;BMP_temperature;BMP_pressure;BME280_temperature;BME280_humidity;BME280_pressure;Samples;Min_cycle;Max_cycle;Signal;HPM_P1;HPM_P2
2021/09/30 00:02:24;;;;;;;1.93;1.57;;;20.40;83.30;;;;;;5106175;28;20452;-41
2021/09/30 00:04:58;;;;;;;3.40;1.30;;;20.50;83.50;;;;;;5106445;28;20450;-42
2021/09/30 00:07:29;;;;;;;1.60;1.30;;;20.50;85.50;;;;;;5106321;28;20497;-42
2021/09/30 00:10:00;;;;;;;1.97;1.20;;;20.50;83.40;;;;;;5106104;28;20453;-41
2021/09/30 00:12:36;;;;;;;2.13;1.30;;;20.50;85.20;;;;;;5114819;28;20457;-41
2021/09/30 00:15:11;;;;;;;2.00;1.40;;;20.30;88.20;;;;;;5116300;28;20472;-41
2021/09/30 00:18:23;;;;;;;2.63;1.40;;;20.30;91.00;;;;;;5115799;28;20475;-42
2021/09/30 00:35:03;;;;;;;2.10;1.40;;;19.90;85.40;;;;;;5124237;28;20474;-42
2021/09/30 00:40:28;;;;;;;1.97;1.53;;;19.60;87.00;;;;;;5091445;28;20454;-42
2021/09/30 00:45:56;;;;;;;2.80;1.70;;;19.20;94.10;;;;;;5124056;28;20417;-42
2021/09/30 00:51:22;;;;;;;1.40;1.30;;;18.80;94.60;;;;;;5110347;28;20447;-42
2021/09/30 01:33:10;;;;;;;3.33;2.97;;;17.70;99.90;;;;;;5041695;28;20449;-41
2021/09/30 01:47:02;;;;;;;3.10;2.77;;;17.40;99.90;;;;;;5039880;28;20484;-42
2021/09/30 02:21:42;;;;;;;4.73;2.90;;;16.50;99.90;;;;;;5108983;28;20522;-34
2021/09/30 02:30:01;;;;;;;3.90;3.30;;;16.10;99.90;;;;;;5097426;28;20435;-35
2021/09/30 02:58:13;;;;;;;7.60;4.90;;;16.10;99.90;;;;;;5160696;27;20479;-34
2021/09/30 03:00:46;;;;;;;5.30;4.80;;;16.10;99.90;;;;;;5159886;27;20494;-34
2021/09/30 03:03:21;;;;;;;4.80;4.30;;;16.10;99.90;;;;;;5160191;27;21361;-35
2021/09/30 03:05:54;;;;;;;5.33;4.40;;;16.10;99.90;;;;;;5160729;27;20460;-35
2021/09/30 03:08:29;;;;;;;5.23;4.50;;;16.10;99.90;;;;;;5155969;27;20464;-35
2021/09/30 03:11:03;;;;;;;6.60;4.90;;;16.10;99.90;;;;;;5153163;27;20459;-35
2021/09/30 03:13:35;;;;;;;4.93;4.53;;;16.10;99.90;;;;;;5146380;27;20444;-35
2021/09/30 03:16:12;;;;;;;6.60;4.67;;;16.10;99.90;;;;;;5146065;27;20441;-34
2021/09/30 03:18:55;;;;;;;4.23;3.80;;;16.00;99.90;;;;;;5146304;27;20453;-34
2021/09/30 03:24:18;;;;;;;4.77;4.30;;;16.00;99.90;;;;;;5145594;27;20448;-35
2021/09/30 03:26:50;;;;;;;5.30;4.57;;;15.90;99.90;;;;;;5146416;27;20417;-35
2021/09/30 03:29:22;;;;;;;5.70;4.23;;;15.80;99.90;;;;;;5146520;27;20440;-35
2021/09/30 03:31:55;;;;;;;5.70;4.40;;;15.80;99.90;;;;;;5145381;27;20496;-35
2021/09/30 03:34:26;;;;;;;5.20;4.57;;;15.70;99.90;;;;;;5149258;27;20481;-35
2021/09/30 03:36:58;;;;;;;4.60;4.20;;;15.70;99.90;;;;;;5146298;27;20846;-35
2021/09/30 03:39:32;;;;;;;4.60;4.20;;;15.60;99.90;;;;;;5145993;27;20460;-35
2021/09/30 03:42:04;;;;;;;5.40;4.70;;;15.50;99.90;;;;;;5146396;27;20435;-35
2021/09/30 03:44:35;;;;;;;5.83;4.73;;;15.50;99.90;;;;;;5145968;27;20448;-35
2021/09/30 03:47:06;;;;;;;7.73;4.97;;;15.50;99.90;;;;;;5145252;27;20445;-35
2021/09/30 03:49:37;;;;;;;5.40;4.30;;;15.40;99.90;;;;;;5144854;27;20457;-35
2021/09/30 03:52:12;;;;;;;6.20;5.00;;;15.40;99.90;;;;;;5145473;27;20477;-34
2021/09/30 03:54:52;;;;;;;5.77;5.20;;;15.40;99.90;;;;;;5145696;27;20441;-35
2021/09/30 03:57:35;;;;;;;5.60;5.10;;;15.40;99.90;;;;;;5147015;27;20444;-35
2021/09/30 04:00:07;;;;;;;6.00;4.90;;;15.30;99.90;;;;;;5145240;27;20617;-35
2021/09/30 04:02:38;;;;;;;5.70;5.20;;;15.30;99.90;;;;;;5141392;27;20464;-35
2021/09/30 04:05:10;;;;;;;6.40;5.80;;;15.20;99.90;;;;;;5145130;27;20491;-35
2021/09/30 04:07:41;;;;;;;5.83;5.17;;;15.20;99.90;;;;;;5141594;27;20480;-35
2021/09/30 04:10:14;;;;;;;6.57;5.40;;;15.10;99.90;;;;;;5145098;27;20463;-35
2021/09/30 04:12:46;;;;;;;5.80;5.13;;;15.00;99.90;;;;;;5145850;27;20448;-34
2021/09/30 04:15:17;;;;;;;6.43;5.80;;;15.00;99.90;;;;;;5142249;27;20432;-34
2021/09/30 04:17:48;;;;;;;5.90;5.33;;;14.90;99.90;;;;;;5145193;27;20520;-34
2021/09/30 04:20:24;;;;;;;7.23;5.27;;;14.80;99.90;;;;;;5145048;27;20510;-35
2021/09/30 04:22:55;;;;;;;5.20;4.70;;;14.70;99.90;;;;;;5144382;27;20460;-35
2021/09/30 04:25:28;;;;;;;6.20;5.70;;;14.70;99.90;;;;;;5145487;27;20472;-35
2021/09/30 04:27:59;;;;;;;6.07;5.57;;;14.70;99.90;;;;;;5145428;27;20440;-35
2021/09/30 04:30:29;;;;;;;8.57;5.83;;;14.70;99.90;;;;;;5145260;27;20452;-35
2021/09/30 04:33:00;;;;;;;8.30;5.80;;;14.60;99.90;;;;;;5144357;27;20456;-34
2021/09/30 04:35:31;;;;;;;6.83;6.20;;;14.60;99.90;;;;;;5144542;27;20472;-35
2021/09/30 04:38:02;;;;;;;5.63;5.03;;;14.60;99.90;;;;;;5143779;27;20456;-35
2021/09/30 04:40:35;;;;;;;6.47;5.00;;;14.60;99.90;;;;;;5143825;27;20476;-35
2021/09/30 04:43:06;;;;;;;5.73;5.27;;;14.50;99.90;;;;;;5144730;27;20460;-35
2021/09/30 04:45:37;;;;;;;6.73;5.70;;;14.50;99.90;;;;;;5144520;27;20448;-35
2021/09/30 04:48:10;;;;;;;6.10;5.10;;;14.40;99.90;;;;;;5143735;27;20539;-35
2021/09/30 04:50:41;;;;;;;5.73;5.23;;;14.40;99.90;;;;;;5144678;27;20453;-35
2021/09/30 04:53:11;;;;;;;5.40;4.90;;;14.40;99.90;;;;;;5144775;27;20826;-35
2021/09/30 04:55:44;;;;;;;7.60;5.90;;;14.40;99.90;;;;;;5134279;27;20449;-35
2021/09/30 04:58:15;;;;;;;6.13;5.53;;;14.30;99.90;;;;;;5142776;27;20476;-34
2021/09/30 05:00:46;;;;;;;6.50;5.90;;;14.30;99.90;;;;;;5143866;27;20567;-35
2021/09/30 05:03:17;;;;;;;6.13;5.60;;;14.20;99.90;;;;;;5143870;27;20456;-35
2021/09/30 05:05:48;;;;;;;6.43;5.70;;;14.20;99.90;;;;;;5144394;27;20444;-35
2021/09/30 05:08:19;;;;;;;6.63;6.03;;;14.10;99.90;;;;;;5144537;27;20478;-34
2021/09/30 05:10:52;;;;;;;6.40;5.73;;;14.10;99.90;;;;;;5144110;27;20429;-35
2021/09/30 05:13:25;;;;;;;6.53;5.90;;;14.00;99.90;;;;;;5144789;27;20475;-35
2021/09/30 05:15:56;;;;;;;6.47;5.90;;;14.00;99.90;;;;;;5144084;27;20524;-33
2021/09/30 05:18:27;;;;;;;5.70;5.20;;;14.00;99.90;;;;;;5143179;27;20449;-34
2021/09/30 05:20:58;;;;;;;6.27;5.77;;;13.90;99.90;;;;;;5143985;27;20597;-35
2021/09/30 05:23:29;;;;;;;8.03;6.23;;;13.90;99.90;;;;;;5143698;27;20484;-34
2021/09/30 05:26:02;;;;;;;7.97;6.27;;;13.90;99.90;;;;;;5143862;27;20441;-35
2021/09/30 05:28:33;;;;;;;7.23;6.53;;;13.90;99.90;;;;;;5143166;27;20956;-35
2021/09/30 05:31:05;;;;;;;6.50;5.93;;;13.90;99.90;;;;;;5143615;27;20504;-35
2021/09/30 05:33:36;;;;;;;6.67;5.63;;;14.00;99.90;;;;;;5143202;27;20529;-35
2021/09/30 05:36:07;;;;;;;7.37;6.53;;;14.10;99.90;;;;;;5143793;27;20472;-35
2021/09/30 05:38:38;;;;;;;8.17;6.40;;;14.10;99.90;;;;;;5143389;27;20437;-35
2021/09/30 05:41:11;;;;;;;6.60;5.90;;;14.10;99.90;;;;;;5143375;27;20546;-34
2021/09/30 05:43:47;;;;;;;8.67;5.73;;;14.20;99.90;;;;;;5144380;27;20428;-35
2021/09/30 05:46:30;;;;;;;10.17;6.80;;;14.20;99.90;;;;;;5142716;27;20440;-34
2021/09/30 05:49:01;;;;;;;5.60;5.00;;;14.20;99.90;;;;;;5143321;27;20459;-34
2021/09/30 05:51:32;;;;;;;9.60;6.67;;;14.20;99.90;;;;;;5143284;27;20511;-34
2021/09/30 05:54:03;;;;;;;6.23;5.73;;;14.20;99.90;;;;;;5143765;27;20460;-34
2021/09/30 05:56:35;;;;;;;7.63;6.10;;;14.30;99.90;;;;;;5143260;27;20437;-34
2021/09/30 06:10:46;;;;;;;6.57;5.90;;;14.40;99.90;;;;;;5143665;27;20455;-35
2021/09/30 06:13:23;;;;;;;7.53;6.90;;;14.40;99.90;;;;;;5143322;27;20447;-35
2021/09/30 06:15:54;;;;;;;6.30;5.80;;;14.40;99.90;;;;;;5143207;27;20455;-35
2021/09/30 06:18:25;;;;;;;6.27;5.67;;;14.50;99.90;;;;;;5122362;28;20658;-34
2021/09/30 06:20:57;;;;;;;7.03;6.10;;;14.60;99.90;;;;;;5123076;28;20898;-34
2021/09/30 06:23:28;;;;;;;7.00;5.80;;;14.70;99.90;;;;;;5127215;28;20467;-34
2021/09/30 06:25:59;;;;;;;6.40;5.70;;;14.70;99.90;;;;;;5143066;27;20448;-34
2021/09/30 06:28:31;;;;;;;6.37;5.73;;;14.70;99.90;;;;;;5143021;28;20441;-34
2021/09/30 06:31:03;;;;;;;9.20;5.63;;;14.80;99.90;;;;;;5143342;27;20559;-34
2021/09/30 06:33:34;;;;;;;7.63;5.80;;;14.70;99.90;;;;;;5141437;27;20912;-35
2021/09/30 06:36:05;;;;;;;7.10;6.40;;;14.80;99.90;;;;;;5142923;28;20441;-34
2021/09/30 06:38:42;;;;;;;7.20;6.50;;;14.80;99.90;;;;;;5143194;27;20443;-34
2021/09/30 06:41:13;;;;;;;6.03;5.30;;;14.90;99.90;;;;;;5143313;28;20491;-35
2021/09/30 06:43:45;;;;;;;6.10;5.50;;;14.90;99.90;;;;;;5143124;28;20449;-34
2021/09/30 06:46:36;;;;;;;6.60;5.70;;;14.90;99.90;;;;;;5144227;27;20452;-34
2021/09/30 06:49:07;;;;;;;6.40;5.50;;;14.90;99.90;;;;;;5146674;27;20539;-34
2021/09/30 06:51:39;;;;;;;6.30;5.63;;;15.00;99.90;;;;;;5146279;27;20963;-34
2021/09/30 06:54:09;;;;;;;8.40;6.00;;;14.90;99.90;;;;;;5146511;27;20456;-34
2021/09/30 06:56:40;;;;;;;6.47;5.97;;;14.90;99.90;;;;;;5146650;27;20468;-35
2021/09/30 06:59:19;;;;;;;6.60;5.77;;;14.90;99.90;;;;;;5146874;27;20468;-34
2021/09/30 07:01:50;;;;;;;6.60;5.90;;;14.90;99.90;;;;;;5146141;27;20484;-34
2021/09/30 07:04:21;;;;;;;7.43;6.53;;;14.90;99.90;;;;;;5146045;27;20459;-35
2021/09/30 07:06:54;;;;;;;6.67;5.20;;;14.90;99.90;;;;;;5146619;27;20449;-34
2021/09/30 07:09:25;;;;;;;6.70;6.00;;;15.00;99.90;;;;;;5146627;27;20429;-34
2021/09/30 07:11:56;;;;;;;6.57;5.87;;;15.00;99.90;;;;;;5146730;27;20440;-34
2021/09/30 07:14:29;;;;;;;7.50;5.67;;;15.10;99.90;;;;;;5146188;27;20476;-34
2021/09/30 07:17:05;;;;;;;6.83;5.77;;;15.10;99.90;;;;;;5146083;27;20445;-42
2021/09/30 07:19:37;;;;;;;5.80;5.20;;;15.10;99.90;;;;;;5146389;27;20441;-42
2021/09/30 07:22:09;;;;;;;7.00;5.20;;;15.10;99.90;;;;;;5146057;27;20480;-43
2021/09/30 07:24:40;;;;;;;6.70;5.27;;;15.20;99.90;;;;;;5142949;27;20444;-42
2021/09/30 07:27:12;;;;;;;6.70;5.20;;;15.20;99.90;;;;;;5146384;27;20453;-42
2021/09/30 07:29:45;;;;;;;5.53;5.00;;;15.10;99.90;;;;;;5135873;27;20441;-42
2021/09/30 07:32:16;;;;;;;6.13;5.30;;;15.10;99.90;;;;;;5145682;27;20445;-42
2021/09/30 07:34:47;;;;;;;6.93;6.30;;;15.20;99.90;;;;;;5145498;27;20506;-42
2021/09/30 07:37:18;;;;;;;5.20;4.70;;;15.10;99.90;;;;;;5145736;27;20448;-42
2021/09/30 07:39:49;;;;;;;5.70;5.10;;;15.20;99.90;;;;;;5146421;27;20912;-42
2021/09/30 07:42:20;;;;;;;4.93;4.53;;;15.30;99.90;;;;;;5146550;27;20526;-42
2021/09/30 07:44:52;;;;;;;5.40;4.60;;;15.30;99.90;;;;;;5145722;27;20449;-42
2021/09/30 07:47:24;;;;;;;5.00;4.50;;;15.30;99.90;;;;;;5145040;27;20445;-42
2021/09/30 07:49:55;;;;;;;5.07;4.10;;;15.20;99.90;;;;;;5145871;27;20449;-42
2021/09/30 07:52:25;;;;;;;4.40;4.00;;;15.20;99.90;;;;;;5145820;27;20521;-42
2021/09/30 07:54:56;;;;;;;5.93;4.60;;;15.20;99.90;;;;;;5144860;27;20448;-42
2021/09/30 07:57:27;;;;;;;6.40;4.60;;;15.20;99.90;;;;;;5144914;27;20532;-42
2021/09/30 08:00:01;;;;;;;4.90;4.40;;;15.20;99.90;;;;;;5145323;27;20850;-42
2021/09/30 08:02:33;;;;;;;5.80;4.60;;;15.20;99.90;;;;;;5144484;27;20490;-41
2021/09/30 08:05:05;;;;;;;4.80;4.40;;;15.30;99.90;;;;;;5144806;27;20449;-42
2021/09/30 08:07:36;;;;;;;4.23;3.83;;;15.30;99.90;;;;;;5145687;27;20469;-42
2021/09/30 08:10:08;;;;;;;5.20;4.70;;;15.40;99.90;;;;;;5145573;27;20448;-42
2021/09/30 08:12:40;;;;;;;4.53;4.07;;;15.40;99.90;;;;;;5145344;27;20441;-42
2021/09/30 08:15:13;;;;;;;5.93;4.30;;;15.40;99.90;;;;;;5145253;27;20452;-40
2021/09/30 08:17:44;;;;;;;5.23;4.70;;;15.30;99.90;;;;;;5144801;27;20456;-42
2021/09/30 08:20:16;;;;;;;5.43;4.80;;;15.30;99.90;;;;;;5144577;27;20483;-42
2021/09/30 08:22:47;;;;;;;5.13;4.60;;;15.30;99.90;;;;;;5145301;27;20907;-41
2021/09/30 08:25:18;;;;;;;4.63;4.10;;;15.30;99.90;;;;;;5145372;27;20441;-42
2021/09/30 08:27:49;;;;;;;7.57;4.80;;;15.30;99.90;;;;;;5144575;27;20485;-42
2021/09/30 08:30:22;;;;;;;6.20;4.90;;;15.30;99.90;;;;;;5145163;27;20480;-41
2021/09/30 08:32:52;;;;;;;6.60;4.97;;;15.40;99.90;;;;;;5144928;27;20477;-42
2021/09/30 08:35:23;;;;;;;5.40;4.47;;;15.30;99.90;;;;;;5144008;27;20472;-42
2021/09/30 08:37:54;;;;;;;5.13;4.63;;;15.30;99.90;;;;;;5144896;27;20425;-42
2021/09/30 08:40:25;;;;;;;6.53;4.87;;;15.30;99.90;;;;;;5124961;28;20534;-42
2021/09/30 08:42:57;;;;;;;6.33;4.43;;;15.30;99.90;;;;;;5140929;27;20485;-41
2021/09/30 08:45:30;;;;;;;5.00;4.10;;;15.30;99.90;;;;;;5129117;27;20474;-42
2021/09/30 08:48:02;;;;;;;4.60;4.20;;;15.30;99.90;;;;;;5131703;27;20517;-42
2021/09/30 08:50:38;;;;;;;4.60;4.20;;;15.30;99.90;;;;;;5124512;28;20450;-42
2021/09/30 08:53:10;;;;;;;5.27;4.50;;;15.30;99.90;;;;;;5142391;27;20441;-42
2021/09/30 08:55:41;;;;;;;6.23;4.30;;;15.40;99.90;;;;;;5144661;27;20448;-42
2021/09/30 08:58:12;;;;;;;4.87;4.37;;;15.60;99.90;;;;;;5144072;27;20454;-42
2021/09/30 09:00:46;;;;;;;6.00;4.30;;;15.50;99.90;;;;;;5144473;27;20468;-42
2021/09/30 09:03:17;;;;;;;5.83;4.90;;;15.50;99.90;;;;;;5143667;27;20515;-42
2021/09/30 09:05:49;;;;;;;5.30;4.90;;;15.40;99.90;;;;;;5143801;27;20445;-42
2021/09/30 09:08:20;;;;;;;4.80;4.37;;;15.50;99.90;;;;;;5143771;27;20437;-41
2021/09/30 09:10:55;;;;;;;5.63;5.10;;;15.50;99.90;;;;;;5144854;27;20441;-42
2021/09/30 09:13:26;;;;;;;5.30;4.80;;;15.40;99.90;;;;;;5143747;27;20567;-42
2021/09/30 09:16:00;;;;;;;5.20;4.70;;;15.40;99.90;;;;;;5143588;27;20495;-42
2021/09/30 09:18:34;;;;;;;5.47;4.07;;;15.30;99.90;;;;;;5143772;27;20478;-41
2021/09/30 09:21:11;;;;;;;5.33;4.83;;;15.40;99.90;;;;;;5144524;27;20445;-42
2021/09/30 09:23:55;;;;;;;6.40;4.50;;;15.40;99.90;;;;;;5144342;27;20488;-42
2021/09/30 09:26:31;;;;;;;4.50;4.10;;;15.50;99.90;;;;;;5143740;27;20441;-42
2021/09/30 09:29:06;;;;;;;6.10;4.60;;;15.40;99.90;;;;;;5143990;27;20437;-42
2021/09/30 09:31:41;;;;;;;5.60;3.77;;;15.40;99.90;;;;;;5123180;28;20474;-42
2021/09/30 09:34:20;;;;;;;4.90;4.50;;;15.40;99.90;;;;;;5133312;27;20455;-41
2021/09/30 09:36:53;;;;;;;4.60;4.20;;;15.40;99.90;;;;;;5144094;27;20480;-42
2021/09/30 09:39:35;;;;;;;4.20;3.90;;;15.40;99.90;;;;;;5144311;27;20485;-42
2021/09/30 09:42:09;;;;;;;6.57;4.10;;;15.40;99.90;;;;;;5123861;28;20965;-42
2021/09/30 09:44:58;;;;;;;4.60;3.80;;;15.40;99.90;;;;;;5126833;28;20507;-42
2021/09/30 09:47:32;;;;;;;5.20;3.83;;;15.40;99.90;;;;;;5143493;27;20441;-42
2021/09/30 09:50:17;;;;;;;4.80;3.80;;;15.40;99.90;;;;;;5143857;27;20444;-42
2021/09/30 09:52:52;;;;;;;4.57;4.13;;;15.40;99.90;;;;;;5123912;28;20468;-42
2021/09/30 09:55:30;;;;;;;4.20;3.70;;;15.40;99.90;;;;;;5123316;28;20473;-42
2021/09/30 09:58:05;;;;;;;5.53;4.17;;;15.40;99.90;;;;;;5140034;27;20519;-42
2021/09/30 10:00:38;;;;;;;5.33;4.10;;;15.40;99.90;;;;;;5143615;28;20511;-42
2021/09/30 10:03:19;;;;;;;4.47;3.83;;;15.40;99.90;;;;;;5141832;28;20479;-42
2021/09/30 10:05:50;;;;;;;4.43;4.03;;;15.40;99.90;;;;;;5143911;27;20474;-42
2021/09/30 10:08:21;;;;;;;5.10;4.10;;;15.40;99.90;;;;;;5144418;27;20441;-42
2021/09/30 10:10:54;;;;;;;4.50;4.00;;;15.30;99.90;;;;;;5144111;28;20449;-42
2021/09/30 10:13:27;;;;;;;4.13;3.83;;;15.40;99.90;;;;;;5143752;28;20484;-42
2021/09/30 10:15:58;;;;;;;4.23;3.80;;;15.40;99.90;;;;;;5143354;27;20832;-41
2021/09/30 10:18:30;;;;;;;5.20;3.80;;;15.40;99.90;;;;;;5139565;28;20441;-42
2021/09/30 10:21:02;;;;;;;4.27;3.87;;;15.30;99.90;;;;;;5145072;27;20451;-42
2021/09/30 10:23:35;;;;;;;5.33;3.60;;;15.30;99.90;;;;;;5147743;27;20476;-42
2021/09/30 10:26:14;;;;;;;4.50;4.10;;;15.40;99.90;;;;;;5147426;27;20452;-42
2021/09/30 10:28:47;;;;;;;5.10;4.60;;;15.40;99.90;;;;;;5147568;27;20870;-41
2021/09/30 10:31:27;;;;;;;3.67;3.37;;;15.40;99.90;;;;;;5147395;27;20440;-42
2021/09/30 10:34:02;;;;;;;3.93;3.63;;;15.40;99.90;;;;;;5147719;27;20441;-42
2021/09/30 10:36:44;;;;;;;3.40;3.10;;;15.40;99.90;;;;;;5146569;27;20500;-41
2021/09/30 10:39:24;;;;;;;3.90;3.50;;;15.30;99.90;;;;;;5147729;27;20966;-42
2021/09/30 10:42:01;;;;;;;3.20;2.90;;;15.40;99.90;;;;;;5147518;27;20441;-42
2021/09/30 10:44:36;;;;;;;3.90;3.43;;;15.40;99.90;;;;;;5147020;27;20535;-41
2021/09/30 10:47:09;;;;;;;4.63;3.90;;;15.40;99.90;;;;;;5146388;27;20467;-42
2021/09/30 10:49:45;;;;;;;3.50;3.20;;;15.40;99.90;;;;;;5147068;27;20456;-42
2021/09/30 10:52:24;;;;;;;3.90;3.50;;;15.40;99.90;;;;;;5146862;27;20452;-42
2021/09/30 10:55:24;;;;;;;4.40;3.90;;;15.40;99.90;;;;;;5147167;27;20508;-42
2021/09/30 10:57:56;;;;;;;4.53;4.10;;;15.40;99.90;;;;;;5146426;27;20513;-42
2021/09/30 11:00:47;;;;;;;4.80;3.80;;;15.40;99.90;;;;;;5143905;27;20464;-41
2021/09/30 11:03:22;;;;;;;3.93;3.63;;;15.40;99.90;;;;;;5146745;27;20480;-42
2021/09/30 11:06:28;;;;;;;4.03;3.07;;;15.40;99.90;;;;;;5146190;27;20447;-42
2021/09/30 11:09:17;;;;;;;3.80;3.50;;;15.40;99.90;;;;;;5146818;27;20491;-42
2021/09/30 11:11:49;;;;;;;5.60;4.00;;;15.40;99.90;;;;;;5146984;27;20472;-42
2021/09/30 11:14:23;;;;;;;6.13;3.93;;;15.40;99.90;;;;;;5147239;27;20562;-43
2021/09/30 11:16:56;;;;;;;4.53;3.90;;;15.40;99.90;;;;;;5145458;27;20474;-42
2021/09/30 11:19:46;;;;;;;6.10;4.30;;;15.40;99.90;;;;;;5146722;27;20440;-42
2021/09/30 11:22:39;;;;;;;4.30;3.90;;;15.40;99.90;;;;;;5146057;27;20449;-42
2021/09/30 11:25:10;;;;;;;4.87;4.47;;;15.50;99.90;;;;;;5146329;27;20480;-42
2021/09/30 11:27:41;;;;;;;5.90;4.57;;;15.50;99.90;;;;;;5145345;27;20440;-42
2021/09/30 11:30:27;;;;;;;4.37;3.97;;;15.60;99.90;;;;;;5146213;27;20441;-42
2021/09/30 11:33:00;;;;;;;4.80;4.17;;;15.50;99.90;;;;;;5145031;27;20445;-43
2021/09/30 11:35:32;;;;;;;4.40;4.00;;;15.40;99.90;;;;;;5146255;27;20449;-42
2021/09/30 11:38:05;;;;;;;5.60;3.80;;;15.50;99.90;;;;;;5145917;27;20904;-42
2021/09/30 11:40:36;;;;;;;3.73;3.40;;;15.50;99.90;;;;;;5125734;28;20491;-42
2021/09/30 11:43:13;;;;;;;4.73;3.93;;;15.40;99.90;;;;;;5125726;27;20426;-41
2021/09/30 11:45:44;;;;;;;4.53;4.13;;;15.40;99.90;;;;;;5145347;27;20441;-42
2021/09/30 11:48:15;;;;;;;5.30;3.80;;;15.50;99.90;;;;;;5144680;27;20449;-41
2021/09/30 11:50:46;;;;;;;6.30;3.63;;;15.50;99.90;;;;;;5145675;27;20520;-42
2021/09/30 11:53:19;;;;;;;4.10;3.77;;;15.50;99.90;;;;;;5146060;27;20466;-41
2021/09/30 11:55:51;;;;;;;5.50;3.90;;;15.40;99.90;;;;;;5145559;27;20453;-42
2021/09/30 11:58:22;;;;;;;3.90;3.60;;;15.50;99.90;;;;;;5146098;27;20448;-42
2021/09/30 12:00:54;;;;;;;4.87;4.30;;;15.50;99.90;;;;;;5145814;27;20505;-42
2021/09/30 12:03:25;;;;;;;6.00;4.50;;;15.50;99.90;;;;;;5144710;27;20826;-42
2021/09/30 12:05:56;;;;;;;4.30;3.90;;;15.50;99.90;;;;;;5145303;27;21042;-41
2021/09/30 12:08:29;;;;;;;3.60;3.30;;;15.50;99.90;;;;;;5145078;27;20469;-42
2021/09/30 12:11:04;;;;;;;3.23;2.93;;;15.50;99.90;;;;;;5145355;27;20484;-42
2021/09/30 12:13:35;;;;;;;3.60;3.00;;;15.50;99.90;;;;;;5145130;27;20437;-42
2021/09/30 12:16:08;;;;;;;4.40;3.70;;;15.50;99.90;;;;;;5145052;27;20433;-41
2021/09/30 12:18:38;;;;;;;5.60;3.77;;;15.50;99.90;;;;;;5144229;27;20484;-42
2021/09/30 12:21:09;;;;;;;3.57;3.23;;;15.60;99.90;;;;;;5145145;27;20472;-42
2021/09/30 12:23:43;;;;;;;3.30;3.00;;;15.60;99.90;;;;;;5144771;27;20445;-42
2021/09/30 12:26:16;;;;;;;3.30;2.93;;;15.50;99.90;;;;;;5144913;27;20445;-41
2021/09/30 12:28:48;;;;;;;4.87;3.63;;;15.50;99.90;;;;;;5129784;27;20448;-42
2021/09/30 12:31:19;;;;;;;3.67;3.37;;;15.50;99.90;;;;;;5144902;27;20465;-42
2021/09/30 12:33:50;;;;;;;3.63;3.30;;;15.50;99.90;;;;;;5144848;27;20444;-42
2021/09/30 12:36:21;;;;;;;4.47;3.40;;;15.50;99.90;;;;;;5144553;27;20448;-42
2021/09/30 12:39:01;;;;;;;3.27;2.90;;;15.50;99.90;;;;;;5144327;27;20448;-42
2021/09/30 12:41:32;;;;;;;3.90;3.50;;;15.50;99.90;;;;;;5144789;27;20452;-42
2021/09/30 12:44:12;;;;;;;3.73;3.20;;;15.50;99.90;;;;;;5125580;27;20481;-42
2021/09/30 12:46:44;;;;;;;9.00;4.07;;;15.60;99.90;;;;;;5144561;27;20447;-42
2021/09/30 12:49:15;;;;;;;5.40;3.73;;;15.60;99.90;;;;;;5144710;27;20514;-42
2021/09/30 12:51:46;;;;;;;5.53;3.30;;;15.50;99.90;;;;;;5144843;27;20807;-42
2021/09/30 12:54:28;;;;;;;4.50;3.40;;;15.50;99.90;;;;;;5144966;27;20461;-42
2021/09/30 12:57:11;;;;;;;3.43;3.10;;;15.50;99.90;;;;;;5140708;27;20504;-42
2021/09/30 13:00:14;;;;;;;3.07;2.77;;;15.50;99.90;;;;;;5144542;27;20511;-42
2021/09/30 13:02:46;;;;;;;4.23;3.10;;;15.50;99.90;;;;;;5143785;27;20498;-42
2021/09/30 13:05:18;;;;;;;6.30;3.07;;;15.50;99.90;;;;;;5144705;27;20587;-42
2021/09/30 13:07:52;;;;;;;3.40;2.90;;;15.50;99.90;;;;;;5143967;27;20460;-42
2021/09/30 13:10:33;;;;;;;2.70;2.50;;;15.50;99.90;;;;;;5144255;27;20519;-41
2021/09/30 13:13:07;;;;;;;3.40;3.10;;;15.50;99.90;;;;;;5140406;27;20453;-42
2021/09/30 13:15:40;;;;;;;2.47;2.27;;;15.50;99.90;;;;;;5144198;27;20587;-43
2021/09/30 13:18:14;;;;;;;2.30;2.10;;;15.40;99.90;;;;;;5143555;27;20445;-42
2021/09/30 13:21:07;;;;;;;2.57;2.30;;;15.50;99.90;;;;;;5144594;27;20464;-43
2021/09/30 13:23:42;;;;;;;3.30;3.10;;;15.50;99.90;;;;;;5143725;27;20456;-43
2021/09/30 13:26:15;;;;;;;2.77;2.57;;;15.50;99.90;;;;;;5144456;27;20866;-41
2021/09/30 13:28:46;;;;;;;2.93;2.20;;;15.50;99.90;;;;;;5143720;27;20480;-42
2021/09/30 13:31:17;;;;;;;1.73;1.63;;;15.50;99.90;;;;;;5143654;27;20445;-42
2021/09/30 13:33:48;;;;;;;2.20;2.00;;;15.50;99.90;;;;;;5143617;27;20441;-42
2021/09/30 13:36:19;;;;;;;3.10;2.80;;;15.50;99.90;;;;;;5143890;27;20480;-42
2021/09/30 13:38:49;;;;;;;3.10;2.00;;;15.50;99.90;;;;;;5143302;27;20849;-42
2021/09/30 13:41:22;;;;;;;2.17;1.97;;;15.50;99.90;;;;;;5144464;27;20442;-42
2021/09/30 13:43:53;;;;;;;3.10;2.20;;;15.50;99.90;;;;;;5143764;27;20476;-42
2021/09/30 13:46:24;;;;;;;3.53;2.80;;;15.60;99.90;;;;;;5142956;27;20496;-43
2021/09/30 13:48:55;;;;;;;1.97;1.87;;;15.50;99.90;;;;;;5139789;27;20487;-42
2021/09/30 13:51:28;;;;;;;2.67;2.30;;;15.50;99.90;;;;;;5143864;27;20472;-43
2021/09/30 13:53:59;;;;;;;2.30;2.10;;;15.50;99.90;;;;;;5143724;27;20465;-43
2021/09/30 13:56:32;;;;;;;2.47;2.27;;;15.50;99.90;;;;;;5126511;27;20506;-42
2021/09/30 13:59:04;;;;;;;2.10;1.90;;;15.50;99.90;;;;;;5122848;28;20974;-43
2021/09/30 14:01:55;;;;;;;3.47;1.93;;;15.50;99.90;;;;;;5137283;28;20456;-41
2021/09/30 14:04:26;;;;;;;4.30;2.03;;;15.40;99.90;;;;;;5143648;27;20515;-42
2021/09/30 14:06:58;;;;;;;2.17;2.07;;;15.50;99.90;;;;;;5143705;27;20448;-42
2021/09/30 14:09:32;;;;;;;2.83;2.37;;;15.50;99.90;;;;;;5142814;28;20466;-42
2021/09/30 14:12:06;;;;;;;3.37;2.07;;;15.60;99.90;;;;;;5144100;28;20445;-42
2021/09/30 14:14:37;;;;;;;2.37;2.00;;;15.60;99.90;;;;;;5143589;27;20433;-42
2021/09/30 14:17:08;;;;;;;2.17;2.00;;;15.70;99.90;;;;;;5142875;27;20444;-42
2021/09/30 14:19:39;;;;;;;1.80;1.70;;;15.70;99.90;;;;;;5143059;27;20449;-42
2021/09/30 14:22:10;;;;;;;3.07;2.00;;;15.70;99.90;;;;;;5143517;28;20501;-42
2021/09/30 14:24:41;;;;;;;1.60;1.50;;;15.70;99.90;;;;;;5139533;28;20975;-42
2021/09/30 14:27:13;;;;;;;3.33;2.30;;;15.70;99.90;;;;;;5143754;27;20748;-42
2021/09/30 14:29:44;;;;;;;3.27;2.37;;;15.80;99.90;;;;;;5143620;28;20448;-42
2021/09/30 14:32:15;;;;;;;2.60;1.97;;;15.70;99.90;;;;;;5142750;28;20444;-42
2021/09/30 14:34:47;;;;;;;2.60;2.40;;;15.70;99.90;;;;;;5143047;28;20444;-42
2021/09/30 14:37:18;;;;;;;2.10;1.90;;;15.70;99.90;;;;;;5143220;28;20441;-42
2021/09/30 14:39:49;;;;;;;1.97;1.80;;;15.80;99.90;;;;;;5142952;27;20452;-42
2021/09/30 14:42:21;;;;;;;1.67;1.57;;;15.80;99.90;;;;;;5143563;27;20538;-42
2021/09/30 14:44:52;;;;;;;2.13;1.93;;;15.80;99.90;;;;;;5142898;27;20435;-41
2021/09/30 14:47:23;;;;;;;4.43;2.37;;;15.90;99.90;;;;;;5142630;28;20793;-42
2021/09/30 14:49:54;;;;;;;4.60;2.20;;;15.90;99.90;;;;;;5142224;28;20463;-42
2021/09/30 14:52:25;;;;;;;2.27;2.07;;;15.90;99.90;;;;;;5131722;27;20500;-42
2021/09/30 14:54:56;;;;;;;1.90;1.57;;;15.90;99.90;;;;;;5143915;27;20469;-41
2021/09/30 14:57:29;;;;;;;3.50;2.13;;;15.90;99.90;;;;;;5144330;27;20441;-41
2021/09/30 15:00:00;;;;;;;1.90;1.80;;;15.90;99.90;;;;;;5163777;27;20471;-42
2021/09/30 15:03:09;;;;;;;3.20;2.00;;;15.90;99.90;;;;;;5151422;27;20506;-42
2021/09/30 15:05:41;;;;;;;2.50;2.10;;;16.00;99.90;;;;;;5143246;28;20542;-41
2021/09/30 15:08:12;;;;;;;6.50;2.80;;;16.00;99.90;;;;;;5146140;27;20470;-42
2021/09/30 15:10:43;;;;;;;1.90;1.80;;;16.10;99.90;;;;;;5146385;27;20447;-42
2021/09/30 15:13:16;;;;;;;2.23;1.80;;;16.00;99.90;;;;;;5146627;27;20489;-43
2021/09/30 15:15:47;;;;;;;3.67;1.50;;;16.10;99.90;;;;;;5155029;27;20457;-42
2021/09/30 15:18:27;;;;;;;2.30;2.10;;;16.20;99.90;;;;;;5145685;27;20457;-42
2021/09/30 15:23:46;;;;;;;1.70;1.60;;;16.30;99.90;;;;;;5147382;27;20532;-41
2021/09/30 15:26:17;;;;;;;3.90;2.37;;;16.20;99.90;;;;;;5146063;27;20484;-42
2021/09/30 15:28:50;;;;;;;2.37;2.10;;;16.40;99.90;;;;;;5147136;27;20479;-42
2021/09/30 15:31:21;;;;;;;2.03;1.90;;;16.50;99.90;;;;;;5145885;27;20437;-42
2021/09/30 15:33:53;;;;;;;2.63;2.00;;;16.70;99.90;;;;;;5146027;27;20876;-42
2021/09/30 15:36:25;;;;;;;3.53;2.00;;;16.90;99.90;;;;;;5145448;27;20445;-42
2021/09/30 15:38:59;;;;;;;2.30;2.10;;;16.90;99.90;;;;;;5135897;27;20441;-41
2021/09/30 15:41:31;;;;;;;4.80;2.10;;;16.90;99.90;;;;;;5146432;27;20557;-42
2021/09/30 15:44:04;;;;;;;2.50;2.23;;;16.90;99.90;;;;;;5146633;27;20415;-42
2021/09/30 15:46:35;;;;;;;2.43;1.70;;;16.90;99.90;;;;;;5146343;27;20530;-42
2021/09/30 15:49:06;;;;;;;2.07;1.90;;;17.10;99.90;;;;;;5146144;27;20496;-42
2021/09/30 15:51:37;;;;;;;3.60;1.83;;;17.30;99.90;;;;;;5146335;27;20424;-42
2021/09/30 15:54:08;;;;;;;2.10;1.90;;;17.40;99.90;;;;;;5146373;27;20419;-42
2021/09/30 15:56:39;;;;;;;2.10;1.70;;;17.50;99.90;;;;;;5140661;27;20460;-42